sensor_id;sensor_type;location;lat;lon;timestamp;pressure;altitude;pressure_sealevel;temperature;humidity
18678;BME280;9469;51.114;13.914;2023-12-04T00:02:16;99310.06;;;-3.07;100.00
18678;BME280;9469;51.114;13.914;2023-12-04T00:07:21;99303.25;;;-3.14;100.00
18678;BME280;9469;51.114;13.914;2023-12-04T00:12:29;99304.97;;;-3.41;100.00
18678;BME280;9469;51.114;13.914;2023-12-04T00:17:35;99303.28;;;-2.88;100.00
18678;BME280;9469;51.114;13.914;2023-12-04T00:22:42;99309.91;;;-2.59;100.00
18678;BME280;9469;51.114;13.914;2023-12-04T00:27:50;99308.03;;;-3.24;100.00
18678;BME280;9469;51.114;13.914;2023-12-04T00:32:55;99301.78;;;-3.36;100.00
18678;BME280;9469;51.114;13.914;2023-12-04T00:38:01;99305.91;;;-3.62;100.00
18678;BME280;9469;51.114;13.914;2023-12-04T00:43:08;99304.69;;;-3.66;100.00
18678;BME280;9469;51.114;13.914;2023-12-04T00:48:13;99285.66;;;-3.79;100.00
18678;BME280;9469;51.114;13.914;2023-12-04T00:53:19;99301.81;;;-3.84;100.00
18678;BME280;9469;51.114;13.914;2023-12-04T00:58:29;99296.00;;;-4.26;100.00
18678;BME280;9469;51.114;13.914;2023-12-04T01:03:34;99294.47;;;-4.49;100.00
18678;BME280;9469;51.114;13.914;2023-12-04T01:08:40;99285.00;;;-4.56;100.00
18678;BME280;9469;51.114;13.914;2023-12-04T01:13:49;99284.59;;;-4.60;100.00
18678;BME280;9469;51.114;13.914;2023-12-04T01:18:54;99278.97;;;-4.63;100.00
18678;BME280;9469;51.114;13.914;2023-12-04T01:23:59;99283.75;;;-4.05;100.00
18678;BME280;9469;51.114;13.914;2023-12-04T01:29:07;99289.31;;;-4.08;100.00
18678;BME280;9469;51.114;13.914;2023-12-04T01:34:12;99297.44;;;-4.52;100.00
18678;BME280;9469;51.114;13.914;2023-12-04T01:39:17;99296.06;;;-4.48;100.00
18678;BME280;9469;51.114;13.914;2023-12-04T01:44:25;99298.53;;;-4.40;100.00
18678;BME280;9469;51.114;13.914;2023-12-04T01:49:31;99299.72;;;-4.63;100.00
18678;BME280;9469;51.114;13.914;2023-12-04T01:54:36;99308.69;;;-4.66;100.00
18678;BME280;9469;51.114;13.914;2023-12-04T01:59:45;99292.41;;;-4.81;100.00
18678;BME280;9469;51.114;13.914;2023-12-04T02:04:50;99298.22;;;-4.79;100.00
18678;BME280;9469;51.114;13.914;2023-12-04T02:09:56;99295.44;;;-4.77;100.00
18678;BME280;9469;51.114;13.914;2023-12-04T02:15:04;99289.75;;;-4.87;100.00
18678;BME280;9469;51.114;13.914;2023-12-04T02:20:12;99278.06;;;-5.04;100.00
18678;BME280;9469;51.114;13.914;2023-12-04T02:25:21;99267.78;;;-5.13;100.00
18678;BME280;9469;51.114;13.914;2023-12-04T02:30:38;99251.09;;;-5.03;100.00
18678;BME280;9469;51.114;13.914;2023-12-04T02:35:45;99249.03;;;-5.15;100.00
18678;BME280;9469;51.114;13.914;2023-12-04T02:40:53;99246.72;;;-5.03;100.00
18678;BME280;9469;51.114;13.914;2023-12-04T02:45:59;99250.44;;;-4.91;100.00
18678;BME280;9469;51.114;13.914;2023-12-04T02:51:05;99230.84;;;-4.93;100.00
18678;BME280;9469;51.114;13.914;2023-12-04T02:56:13;99231.78;;;-4.73;100.00
18678;BME280;9469;51.114;13.914;2023-12-04T03:01:18;99224.94;;;-4.81;100.00
18678;BME280;9469;51.114;13.914;2023-12-04T03:06:23;99215.44;;;-4.67;100.00
18678;BME280;9469;51.114;13.914;2023-12-04T03:11:31;99199.50;;;-4.64;100.00
18678;BME280;9469;51.114;13.914;2023-12-04T03:16:37;99187.16;;;-4.56;100.00
18678;BME280;9469;51.114;13.914;2023-12-04T03:21:42;99192.75;;;-4.52;100.00
18678;BME280;9469;51.114;13.914;2023-12-04T03:26:49;99184.22;;;-4.46;100.00
18678;BME280;9469;51.114;13.914;2023-12-04T03:31:54;99186.81;;;-4.46;100.00
18678;BME280;9469;51.114;13.914;2023-12-04T03:37:00;99190.84;;;-4.44;100.00
18678;BME280;9469;51.114;13.914;2023-12-04T03:42:07;99186.88;;;-4.33;100.00
18678;BME280;9469;51.114;13.914;2023-12-04T03:47:12;99178.06;;;-4.39;100.00
18678;BME280;9469;51.114;13.914;2023-12-04T03:52:17;99172.50;;;-4.29;100.00
18678;BME280;9469;51.114;13.914;2023-12-04T03:57:25;99168.69;;;-4.33;100.00
18678;BME280;9469;51.114;13.914;2023-12-04T04:02:31;99157.34;;;-4.32;100.00
18678;BME280;9469;51.114;13.914;2023-12-04T04:07:36;99154.94;;;-4.20;100.00
18678;BME280;9469;51.114;13.914;2023-12-04T04:12:44;99168.38;;;-4.17;100.00
18678;BME280;9469;51.114;13.914;2023-12-04T04:17:49;99164.19;;;-4.11;100.00
18678;BME280;9469;51.114;13.914;2023-12-04T04:22:54;99161.81;;;-4.06;100.00
18678;BME280;9469;51.114;13.914;2023-12-04T04:28:02;99155.19;;;-4.15;100.00
18678;BME280;9469;51.114;13.914;2023-12-04T04:33:07;99145.22;;;-4.12;100.00
18678;BME280;9469;51.114;13.914;2023-12-04T04:38:13;99145.22;;;-4.05;100.00
18678;BME280;9469;51.114;13.914;2023-12-04T04:43:21;99147.41;;;-4.09;100.00
18678;BME280;9469;51.114;13.914;2023-12-04T04:48:26;99142.22;;;-4.02;100.00
18678;BME280;9469;51.114;13.914;2023-12-04T04:53:31;99137.44;;;-4.05;100.00
18678;BME280;9469;51.114;13.914;2023-12-04T04:58:41;99122.25;;;-3.95;100.00
18678;BME280;9469;51.114;13.914;2023-12-04T05:03:53;99126.09;;;-3.91;100.00
18678;BME280;9469;51.114;13.914;2023-12-04T05:08:59;99119.88;;;-3.90;100.00
18678;BME280;9469;51.114;13.914;2023-12-04T05:14:07;99117.06;;;-3.82;100.00
18678;BME280;9469;51.114;13.914;2023-12-04T05:19:14;99121.28;;;-3.68;100.00
18678;BME280;9469;51.114;13.914;2023-12-04T05:24:27;99129.91;;;-3.68;100.00
18678;BME280;9469;51.114;13.914;2023-12-04T05:29:35;99136.91;;;-3.55;100.00
18678;BME280;9469;51.114;13.914;2023-12-04T05:34:43;99136.13;;;-3.42;100.00
18678;BME280;9469;51.114;13.914;2023-12-04T05:39:50;99134.72;;;-3.45;100.00
18678;BME280;9469;51.114;13.914;2023-12-04T05:45:00;99129.53;;;-3.38;100.00
18678;BME280;9469;51.114;13.914;2023-12-04T05:50:07;99117.53;;;-3.39;100.00
18678;BME280;9469;51.114;13.914;2023-12-04T05:55:13;99096.72;;;-3.39;100.00
18678;BME280;9469;51.114;13.914;2023-12-04T06:00:21;99095.09;;;-3.40;100.00
18678;BME280;9469;51.114;13.914;2023-12-04T06:05:30;99068.28;;;-3.34;100.00
18678;BME280;9469;51.114;13.914;2023-12-04T06:10:36;99049.69;;;-3.38;100.00
18678;BME280;9469;51.114;13.914;2023-12-04T06:15:44;99063.91;;;-3.60;100.00
18678;BME280;9469;51.114;13.914;2023-12-04T06:20:49;99064.31;;;-3.56;100.00
18678;BME280;9469;51.114;13.914;2023-12-04T06:25:55;99069.13;;;-3.60;100.00
18678;BME280;9469;51.114;13.914;2023-12-04T06:31:04;99067.72;;;-3.63;100.00
18678;BME280;9469;51.114;13.914;2023-12-04T06:36:12;99061.50;;;-3.62;100.00
18678;BME280;9469;51.114;13.914;2023-12-04T06:41:19;99057.53;;;-3.57;100.00
18678;BME280;9469;51.114;13.914;2023-12-04T06:46:28;99064.09;;;-3.29;100.00
18678;BME280;9469;51.114;13.914;2023-12-04T06:51:37;99065.69;;;-3.41;100.00
18678;BME280;9469;51.114;13.914;2023-12-04T06:56:42;99071.91;;;-3.42;100.00
18678;BME280;9469;51.114;13.914;2023-12-04T07:01:50;99053.47;;;-3.34;100.00
18678;BME280;9469;51.114;13.914;2023-12-04T07:06:55;99055.88;;;-3.19;100.00
18678;BME280;9469;51.114;13.914;2023-12-04T07:12:09;99048.22;;;-3.01;100.00
18678;BME280;9469;51.114;13.914;2023-12-04T07:17:18;99058.66;;;-3.08;100.00
18678;BME280;9469;51.114;13.914;2023-12-04T07:22:24;99071.44;;;-3.00;100.00
18678;BME280;9469;51.114;13.914;2023-12-04T07:27:30;99062.47;;;-3.17;100.00
18678;BME280;9469;51.114;13.914;2023-12-04T07:32:42;99058.84;;;-3.09;100.00
18678;BME280;9469;51.114;13.914;2023-12-04T07:37:48;99050.22;;;-3.03;100.00
18678;BME280;9469;51.114;13.914;2023-12-04T07:42:53;99058.22;;;-2.98;100.00
18678;BME280;9469;51.114;13.914;2023-12-04T07:48:02;99054.81;;;-2.92;100.00
18678;BME280;9469;51.114;13.914;2023-12-04T07:53:07;99053.03;;;-3.05;100.00
18678;BME280;9469;51.114;13.914;2023-12-04T07:58:17;99052.97;;;-2.92;100.00
18678;BME280;9469;51.114;13.914;2023-12-04T08:03:26;99052.97;;;-2.78;100.00
18678;BME280;9469;51.114;13.914;2023-12-04T08:08:31;99050.09;;;-2.70;100.00
18678;BME280;9469;51.114;13.914;2023-12-04T08:13:38;99041.91;;;-2.67;100.00
18678;BME280;9469;51.114;13.914;2023-12-04T08:18:46;99028.28;;;-2.69;100.00
18678;BME280;9469;51.114;13.914;2023-12-04T08:23:51;99022.56;;;-2.53;100.00
18678;BME280;9469;51.114;13.914;2023-12-04T08:28:57;99010.34;;;-2.53;100.00
18678;BME280;9469;51.114;13.914;2023-12-04T08:34:07;99024.69;;;-2.37;100.00
18678;BME280;9469;51.114;13.914;2023-12-04T08:39:14;99021.53;;;-2.46;100.00
18678;BME280;9469;51.114;13.914;2023-12-04T08:44:19;99023.69;;;-2.36;100.00
18678;BME280;9469;51.114;13.914;2023-12-04T08:49:30;99029.63;;;-2.54;100.00
18678;BME280;9469;51.114;13.914;2023-12-04T08:54:48;99024.84;;;-2.26;100.00
18678;BME280;9469;51.114;13.914;2023-12-04T08:59:53;99021.91;;;-2.36;100.00
18678;BME280;9469;51.114;13.914;2023-12-04T09:05:02;99014.13;;;-2.11;100.00
18678;BME280;9469;51.114;13.914;2023-12-04T09:10:09;99012.38;;;-2.24;100.00
18678;BME280;9469;51.114;13.914;2023-12-04T09:15:32;99006.97;;;-2.22;100.00
18678;BME280;9469;51.114;13.914;2023-12-04T09:20:42;99015.25;;;-2.00;100.00
18678;BME280;9469;51.114;13.914;2023-12-04T09:25:48;99009.81;;;-1.99;100.00
18678;BME280;9469;51.114;13.914;2023-12-04T09:30:57;99015.19;;;-1.94;100.00
18678;BME280;9469;51.114;13.914;2023-12-04T09:36:16;99006.09;;;-2.09;100.00
18678;BME280;9469;51.114;13.914;2023-12-04T09:41:34;99003.25;;;-2.08;100.00
18678;BME280;9469;51.114;13.914;2023-12-04T09:46:42;98996.41;;;-2.02;100.00
18678;BME280;9469;51.114;13.914;2023-12-04T09:51:53;98987.84;;;-1.85;100.00
18678;BME280;9469;51.114;13.914;2023-12-04T09:56:58;98981.63;;;-1.59;100.00
18678;BME280;9469;51.114;13.914;2023-12-04T10:02:05;98957.50;;;-1.55;100.00
18678;BME280;9469;51.114;13.914;2023-12-04T10:07:14;98951.63;;;-1.50;100.00
18678;BME280;9469;51.114;13.914;2023-12-04T10:12:20;98940.75;;;-1.65;100.00
18678;BME280;9469;51.114;13.914;2023-12-04T10:17:33;98924.66;;;-1.62;100.00
18678;BME280;9469;51.114;13.914;2023-12-04T10:22:52;98928.22;;;-1.57;100.00
18678;BME280;9469;51.114;13.914;2023-12-04T10:28:08;98915.38;;;-1.58;100.00
18678;BME280;9469;51.114;13.914;2023-12-04T10:33:15;98890.09;;;-1.58;100.00
18678;BME280;9469;51.114;13.914;2023-12-04T10:38:26;98891.03;;;-1.52;100.00
18678;BME280;9469;51.114;13.914;2023-12-04T10:43:33;98897.06;;;-1.52;100.00
18678;BME280;9469;51.114;13.914;2023-12-04T10:48:39;98893.78;;;-1.29;100.00
18678;BME280;9469;51.114;13.914;2023-12-04T10:53:49;98887.47;;;-1.39;100.00
18678;BME280;9469;51.114;13.914;2023-12-04T10:58:57;98867.75;;;-1.54;100.00
18678;BME280;9469;51.114;13.914;2023-12-04T11:04:12;98874.81;;;-1.54;100.00
18678;BME280;9469;51.114;13.914;2023-12-04T11:09:24;98860.16;;;-1.37;100.00
18678;BME280;9469;51.114;13.914;2023-12-04T11:14:35;98863.47;;;-1.30;100.00
18678;BME280;9469;51.114;13.914;2023-12-04T11:19:49;98854.50;;;-1.34;100.00
18678;BME280;9469;51.114;13.914;2023-12-04T11:25:03;98837.88;;;-1.21;100.00
18678;BME280;9469;51.114;13.914;2023-12-04T11:30:11;98839.81;;;-1.17;100.00
18678;BME280;9469;51.114;13.914;2023-12-04T11:35:18;98824.06;;;-1.10;100.00
18678;BME280;9469;51.114;13.914;2023-12-04T11:40:29;98810.25;;;-0.99;100.00
18678;BME280;9469;51.114;13.914;2023-12-04T11:45:39;98803.41;;;-0.70;99.68
18678;BME280;9469;51.114;13.914;2023-12-04T11:50:47;98779.94;;;-1.00;100.00
18678;BME280;9469;51.114;13.914;2023-12-04T11:55:56;98784.50;;;-0.96;100.00
18678;BME280;9469;51.114;13.914;2023-12-04T12:01:02;98769.19;;;-0.69;100.00
18678;BME280;9469;51.114;13.914;2023-12-04T12:12:05;98736.66;;;-1.08;100.00
18678;BME280;9469;51.114;13.914;2023-12-04T12:17:16;98737.22;;;-1.29;100.00
18678;BME280;9469;51.114;13.914;2023-12-04T12:22:22;98726.78;;;-1.06;100.00
18678;BME280;9469;51.114;13.914;2023-12-04T12:27:30;98731.22;;;-1.06;100.00
18678;BME280;9469;51.114;13.914;2023-12-04T12:32:35;98711.13;;;-1.06;100.00
18678;BME280;9469;51.114;13.914;2023-12-04T12:37:41;98711.72;;;-0.81;100.00
18678;BME280;9469;51.114;13.914;2023-12-04T12:42:49;98709.31;;;-1.17;100.00
18678;BME280;9469;51.114;13.914;2023-12-04T12:47:57;98700.25;;;-0.91;100.00
18678;BME280;9469;51.114;13.914;2023-12-04T12:53:03;98697.63;;;-1.14;100.00
18678;BME280;9469;51.114;13.914;2023-12-04T12:58:11;98692.66;;;-1.04;100.00
18678;BME280;9469;51.114;13.914;2023-12-04T13:03:18;98686.84;;;-1.06;100.00
18678;BME280;9469;51.114;13.914;2023-12-04T13:08:25;98699.22;;;-1.02;100.00
18678;BME280;9469;51.114;13.914;2023-12-04T13:13:33;98699.81;;;-1.00;100.00
18678;BME280;9469;51.114;13.914;2023-12-04T13:18:39;98695.94;;;-1.09;100.00
18678;BME280;9469;51.114;13.914;2023-12-04T13:23:47;98681.97;;;-1.14;100.00
18678;BME280;9469;51.114;13.914;2023-12-04T13:28:58;98686.16;;;-1.25;100.00
18678;BME280;9469;51.114;13.914;2023-12-04T13:34:04;98680.59;;;-1.17;100.00
18678;BME280;9469;51.114;13.914;2023-12-04T13:39:09;98662.31;;;-1.17;100.00
18678;BME280;9469;51.114;13.914;2023-12-04T13:44:21;98639.72;;;-1.34;100.00
18678;BME280;9469;51.114;13.914;2023-12-04T13:49:27;98627.09;;;-1.49;100.00
18678;BME280;9469;51.114;13.914;2023-12-04T13:54:32;98629.94;;;-1.51;100.00
18678;BME280;9469;51.114;13.914;2023-12-04T13:59:49;98615.41;;;-1.47;100.00
18678;BME280;9469;51.114;13.914;2023-12-04T14:04:55;98618.25;;;-1.48;100.00
18678;BME280;9469;51.114;13.914;2023-12-04T14:10:00;98606.16;;;-1.42;100.00
18678;BME280;9469;51.114;13.914;2023-12-04T14:15:08;98593.78;;;-1.47;100.00
18678;BME280;9469;51.114;13.914;2023-12-04T14:20:14;98598.31;;;-1.54;100.00
18678;BME280;9469;51.114;13.914;2023-12-04T14:25:21;98587.38;;;-1.63;100.00
18678;BME280;9469;51.114;13.914;2023-12-04T14:30:32;98594.53;;;-1.58;100.00
18678;BME280;9469;51.114;13.914;2023-12-04T14:35:38;98584.00;;;-1.63;100.00
18678;BME280;9469;51.114;13.914;2023-12-04T14:40:47;98569.94;;;-1.62;100.00
18678;BME280;9469;51.114;13.914;2023-12-04T14:46:00;98570.19;;;-1.40;100.00
18678;BME280;9469;51.114;13.914;2023-12-04T14:51:09;98571.31;;;-1.48;100.00
18678;BME280;9469;51.114;13.914;2023-12-04T14:56:15;98567.34;;;-1.51;100.00
18678;BME280;9469;51.114;13.914;2023-12-04T15:01:29;98563.22;;;-1.58;100.00
18678;BME280;9469;51.114;13.914;2023-12-04T15:07:12;98564.72;;;-1.62;100.00
18678;BME280;9469;51.114;13.914;2023-12-04T15:12:30;98557.56;;;-1.55;100.00
18678;BME280;9469;51.114;13.914;2023-12-04T15:17:57;98547.72;;;-1.53;100.00
18678;BME280;9469;51.114;13.914;2023-12-04T15:23:23;98554.41;;;-1.57;100.00
18678;BME280;9469;51.114;13.914;2023-12-04T15:28:31;98548.06;;;-1.50;100.00
18678;BME280;9469;51.114;13.914;2023-12-04T15:33:39;98570.97;;;-1.40;100.00
18678;BME280;9469;51.114;13.914;2023-12-04T15:38:44;98561.44;;;-1.34;100.00
18678;BME280;9469;51.114;13.914;2023-12-04T15:43:52;98550.19;;;-1.58;100.00
18678;BME280;9469;51.114;13.914;2023-12-04T15:49:01;98529.44;;;-1.65;100.00
18678;BME280;9469;51.114;13.914;2023-12-04T15:54:06;98529.44;;;-1.53;100.00
18678;BME280;9469;51.114;13.914;2023-12-04T15:59:13;98520.38;;;-1.51;100.00
18678;BME280;9469;51.114;13.914;2023-12-04T16:04:23;98514.28;;;-1.56;100.00
18678;BME280;9469;51.114;13.914;2023-12-04T16:09:29;98510.75;;;-1.62;100.00
18678;BME280;9469;51.114;13.914;2023-12-04T16:14:35;98511.88;;;-1.58;100.00
18678;BME280;9469;51.114;13.914;2023-12-04T16:19:45;98500.75;;;-1.53;100.00
18678;BME280;9469;51.114;13.914;2023-12-04T16:24:50;98499.28;;;-1.49;100.00
18678;BME280;9469;51.114;13.914;2023-12-04T16:29:59;98489.63;;;-1.49;100.00
18678;BME280;9469;51.114;13.914;2023-12-04T16:35:14;98475.22;;;-1.51;100.00
18678;BME280;9469;51.114;13.914;2023-12-04T16:40:20;98476.28;;;-1.52;100.00
18678;BME280;9469;51.114;13.914;2023-12-04T16:45:27;98478.66;;;-1.62;100.00
18678;BME280;9469;51.114;13.914;2023-12-04T16:50:38;98484.41;;;-1.49;100.00
18678;BME280;9469;51.114;13.914;2023-12-04T16:55:43;98480.25;;;-1.50;100.00
18678;BME280;9469;51.114;13.914;2023-12-04T17:00:49;98474.00;;;-1.49;100.00
18678;BME280;9469;51.114;13.914;2023-12-04T17:05:58;98463.44;;;-1.54;100.00
18678;BME280;9469;51.114;13.914;2023-12-04T17:11:14;98460.06;;;-1.66;100.00
18678;BME280;9469;51.114;13.914;2023-12-04T17:16:22;98456.41;;;-1.65;100.00
18678;BME280;9469;51.114;13.914;2023-12-04T17:21:32;98458.00;;;-1.64;100.00
18678;BME280;9469;51.114;13.914;2023-12-04T17:26:40;98441.44;;;-1.58;100.00
18678;BME280;9469;51.114;13.914;2023-12-04T17:32:03;98444.06;;;-1.69;100.00
18678;BME280;9469;51.114;13.914;2023-12-04T17:37:15;98449.38;;;-1.53;100.00
18678;BME280;9469;51.114;13.914;2023-12-04T17:42:23;98443.16;;;-1.52;100.00
18678;BME280;9469;51.114;13.914;2023-12-04T17:47:30;98437.28;;;-1.59;100.00
18678;BME280;9469;51.114;13.914;2023-12-04T17:52:37;98432.81;;;-1.58;100.00
18678;BME280;9469;51.114;13.914;2023-12-04T17:57:45;98430.22;;;-1.58;100.00
18678;BME280;9469;51.114;13.914;2023-12-04T18:02:50;98431.94;;;-1.64;100.00
18678;BME280;9469;51.114;13.914;2023-12-04T18:08:00;98413.44;;;-1.62;100.00
18678;BME280;9469;51.114;13.914;2023-12-04T18:13:07;98414.94;;;-1.66;100.00
18678;BME280;9469;51.114;13.914;2023-12-04T18:18:12;98417.41;;;-1.60;100.00
18678;BME280;9469;51.114;13.914;2023-12-04T18:23:22;98419.47;;;-1.62;100.00
18678;BME280;9469;51.114;13.914;2023-12-04T18:28:28;98412.88;;;-1.53;100.00
18678;BME280;9469;51.114;13.914;2023-12-04T18:33:36;98409.59;;;-1.60;100.00
18678;BME280;9469;51.114;13.914;2023-12-04T18:38:50;98396.66;;;-1.66;100.00
18678;BME280;9469;51.114;13.914;2023-12-04T18:43:59;98397.34;;;-1.59;100.00
18678;BME280;9469;51.114;13.914;2023-12-04T18:49:05;98407.34;;;-1.56;100.00
18678;BME280;9469;51.114;13.914;2023-12-04T18:54:15;98395.84;;;-1.55;100.00
18678;BME280;9469;51.114;13.914;2023-12-04T18:59:21;98395.53;;;-1.47;100.00
18678;BME280;9469;51.114;13.914;2023-12-04T19:04:29;98392.25;;;-1.54;100.00
18678;BME280;9469;51.114;13.914;2023-12-04T19:09:40;98377.72;;;-1.50;100.00
18678;BME280;9469;51.114;13.914;2023-12-04T19:14:46;98373.19;;;-1.55;100.00
18678;BME280;9469;51.114;13.914;2023-12-04T19:19:51;98381.25;;;-1.56;100.00
18678;BME280;9469;51.114;13.914;2023-12-04T19:25:00;98367.38;;;-1.45;100.00
18678;BME280;9469;51.114;13.914;2023-12-04T19:30:07;98372.75;;;-1.52;100.00
18678;BME280;9469;51.114;13.914;2023-12-04T19:35:14;98366.81;;;-1.47;100.00
18678;BME280;9469;51.114;13.914;2023-12-04T19:40:26;98369.09;;;-1.51;100.00
18678;BME280;9469;51.114;13.914;2023-12-04T19:45:32;98357.19;;;-1.58;100.00
18678;BME280;9469;51.114;13.914;2023-12-04T19:50:38;98352.78;;;-1.58;100.00
18678;BME280;9469;51.114;13.914;2023-12-04T19:55:51;98360.38;;;-1.56;100.00
18678;BME280;9469;51.114;13.914;2023-12-04T20:01:03;98360.00;;;-1.48;100.00
18678;BME280;9469;51.114;13.914;2023-12-04T20:06:09;98363.97;;;-1.46;100.00
18678;BME280;9469;51.114;13.914;2023-12-04T20:11:18;98334.41;;;-1.63;100.00
18678;BME280;9469;51.114;13.914;2023-12-04T20:16:24;98329.84;;;-1.56;100.00
18678;BME280;9469;51.114;13.914;2023-12-04T20:21:32;98340.41;;;-1.51;100.00
18678;BME280;9469;51.114;13.914;2023-12-04T20:26:41;98327.69;;;-1.47;100.00
18678;BME280;9469;51.114;13.914;2023-12-04T20:31:46;98314.31;;;-1.51;100.00
18678;BME280;9469;51.114;13.914;2023-12-04T20:36:54;98310.91;;;-1.51;100.00
18678;BME280;9469;51.114;13.914;2023-12-04T20:42:02;98328.59;;;-1.53;100.00
18678;BME280;9469;51.114;13.914;2023-12-04T20:47:10;98323.94;;;-1.51;100.00
18678;BME280;9469;51.114;13.914;2023-12-04T20:52:15;98309.22;;;-1.57;100.00
18678;BME280;9469;51.114;13.914;2023-12-04T20:57:23;98288.47;;;-1.52;100.00
18678;BME280;9469;51.114;13.914;2023-12-04T21:02:30;98284.97;;;-1.58;100.00
18678;BME280;9469;51.114;13.914;2023-12-04T21:07:36;98287.81;;;-1.59;100.00
18678;BME280;9469;51.114;13.914;2023-12-04T21:12:44;98274.78;;;-1.59;100.00
18678;BME280;9469;51.114;13.914;2023-12-04T21:17:49;98264.75;;;-1.51;100.00
18678;BME280;9469;51.114;13.914;2023-12-04T21:22:54;98262.38;;;-1.52;100.00
18678;BME280;9469;51.114;13.914;2023-12-04T21:28:03;98266.22;;;-1.43;100.00
18678;BME280;9469;51.114;13.914;2023-12-04T21:33:08;98265.09;;;-1.47;100.00
18678;BME280;9469;51.114;13.914;2023-12-04T21:38:14;98261.53;;;-1.41;100.00
18678;BME280;9469;51.114;13.914;2023-12-04T21:43:22;98228.00;;;-1.49;100.00
18678;BME280;9469;51.114;13.914;2023-12-04T21:48:27;98235.19;;;-1.56;100.00
18678;BME280;9469;51.114;13.914;2023-12-04T21:53:33;98221.44;;;-1.52;100.00
18678;BME280;9469;51.114;13.914;2023-12-04T21:58:41;98236.47;;;-1.42;100.00
18678;BME280;9469;51.114;13.914;2023-12-04T22:03:46;98237.25;;;-1.41;100.00
18678;BME280;9469;51.114;13.914;2023-12-04T22:08:52;98232.50;;;-1.45;100.00
18678;BME280;9469;51.114;13.914;2023-12-04T22:14:01;98230.78;;;-1.39;100.00
18678;BME280;9469;51.114;13.914;2023-12-04T22:19:07;98245.50;;;-1.33;100.00
18678;BME280;9469;51.114;13.914;2023-12-04T22:24:12;98241.41;;;-1.29;100.00
18678;BME280;9469;51.114;13.914;2023-12-04T22:29:20;98245.03;;;-1.30;100.00
18678;BME280;9469;51.114;13.914;2023-12-04T22:34:25;98236.19;;;-1.29;100.00
18678;BME280;9469;51.114;13.914;2023-12-04T22:39:30;98227.63;;;-1.24;100.00
18678;BME280;9469;51.114;13.914;2023-12-04T22:44:40;98222.66;;;-1.26;100.00
18678;BME280;9469;51.114;13.914;2023-12-04T22:49:45;98215.44;;;-1.35;100.00
18678;BME280;9469;51.114;13.914;2023-12-04T22:54:51;98210.09;;;-1.29;100.00
18678;BME280;9469;51.114;13.914;2023-12-04T22:59:58;98197.28;;;-1.30;100.00
18678;BME280;9469;51.114;13.914;2023-12-04T23:05:04;98197.06;;;-1.29;100.00
18678;BME280;9469;51.114;13.914;2023-12-04T23:10:09;98197.91;;;-1.23;100.00
18678;BME280;9469;51.114;13.914;2023-12-04T23:15:18;98203.59;;;-1.26;100.00
18678;BME280;9469;51.114;13.914;2023-12-04T23:20:23;98185.75;;;-1.18;100.00
18678;BME280;9469;51.114;13.914;2023-12-04T23:25:28;98184.06;;;-1.24;100.00
18678;BME280;9469;51.114;13.914;2023-12-04T23:30:36;98171.28;;;-1.25;100.00
18678;BME280;9469;51.114;13.914;2023-12-04T23:35:44;98184.97;;;-1.18;100.00
18678;BME280;9469;51.114;13.914;2023-12-04T23:40:50;98187.94;;;-1.26;100.00
18678;BME280;9469;51.114;13.914;2023-12-04T23:45:57;98190.88;;;-1.23;100.00
18678;BME280;9469;51.114;13.914;2023-12-04T23:51:03;98194.50;;;-1.24;100.00
18678;BME280;9469;51.114;13.914;2023-12-04T23:56:11;98170.22;;;-1.24;100.00
